Time;durP1;ratioP1;P1;durP2;ratioP2;P2;SDS_P1;SDS_P2;PMS_P1;PMS_P2;Temp;Humidity;BMP_temperature;BMP_pressure;BME280_temperature;BME280_humidity;BME280_pressure;Samples;Min_cycle;Max_cycle;Signal;HPM_P1;HPM_P2
2021/03/13 00:02:22;;;;;;;9.32;2.00;;;8.50;75.20;;;;;;5074851;28;20025;-70
2021/03/13 00:04:48;;;;;;;7.35;1.98;;;8.50;75.20;;;;;;5073251;28;20025;-70
2021/03/13 00:07:14;;;;;;;6.60;1.83;;;8.50;75.30;;;;;;5074672;28;20037;-71
2021/03/13 00:09:39;;;;;;;7.10;2.35;;;8.50;75.90;;;;;;5073623;28;20417;-71
2021/03/13 00:12:05;;;;;;;12.30;2.78;;;8.50;75.20;;;;;;5074804;28;20047;-72
2021/03/13 00:14:31;;;;;;;6.90;2.00;;;8.50;75.30;;;;;;5074799;28;20495;-72
2021/03/13 00:16:57;;;;;;;12.25;2.78;;;8.50;75.30;;;;;;5073343;28;20110;-72
2021/03/13 00:19:22;;;;;;;6.35;2.13;;;8.50;75.30;;;;;;5073695;28;20051;-71
2021/03/13 00:21:48;;;;;;;5.55;1.88;;;8.50;75.30;;;;;;5073189;28;20036;-72
2021/03/13 00:24:14;;;;;;;9.88;2.22;;;8.50;75.30;;;;;;5073243;28;20029;-71
2021/03/13 00:26:41;;;;;;;5.93;2.45;;;8.50;75.30;;;;;;5073133;28;20036;-71
2021/03/13 00:29:07;;;;;;;6.80;1.92;;;8.50;75.30;;;;;;5073028;28;20017;-72
2021/03/13 00:31:33;;;;;;;9.25;2.30;;;8.50;75.30;;;;;;5074402;28;20031;-71
2021/03/13 00:33:58;;;;;;;9.50;2.45;;;8.50;75.40;;;;;;5073038;28;20032;-72
2021/03/13 00:36:24;;;;;;;9.85;2.28;;;8.50;75.50;;;;;;5073152;28;20444;-72
2021/03/13 00:38:50;;;;;;;14.45;2.67;;;8.50;75.50;;;;;;5074251;28;20044;-72
2021/03/13 00:41:15;;;;;;;9.07;2.08;;;8.50;75.50;;;;;;5074138;28;20029;-71
2021/03/13 00:43:41;;;;;;;11.27;2.60;;;8.40;75.60;;;;;;5074212;28;20117;-72
2021/03/13 00:46:07;;;;;;;7.72;1.85;;;8.40;75.70;;;;;;5072552;28;20322;-71
2021/03/13 00:48:32;;;;;;;9.27;2.35;;;8.40;75.70;;;;;;5074301;28;20032;-71
2021/03/13 00:50:58;;;;;;;10.95;2.05;;;8.40;75.80;;;;;;5072483;28;20036;-71
2021/03/13 00:53:24;;;;;;;6.72;1.77;;;8.40;75.90;;;;;;5073847;28;20028;-71
2021/03/13 00:55:49;;;;;;;8.88;1.90;;;8.40;75.90;;;;;;5073829;28;20476;-72
2021/03/13 00:58:15;;;;;;;16.27;6.55;;;8.40;75.90;;;;;;5073705;28;20040;-71
2021/03/13 01:00:41;;;;;;;13.05;4.90;;;8.40;76.00;;;;;;5073319;28;20029;-71
2021/03/13 01:03:07;;;;;;;9.57;3.10;;;8.40;76.00;;;;;;5072345;28;20025;-72
2021/03/13 01:05:33;;;;;;;7.78;2.55;;;8.40;76.00;;;;;;5072212;28;20150;-72
2021/03/13 01:07:59;;;;;;;12.52;2.25;;;8.40;76.10;;;;;;5073590;28;20383;-71
2021/03/13 01:10:31;;;;;;;5.70;1.73;;;8.40;76.00;;;;;;5073706;28;20025;-72
2021/03/13 01:12:57;;;;;;;8.00;1.80;;;8.50;76.10;;;;;;5073532;28;20029;-71
2021/03/13 01:15:23;;;;;;;8.48;1.67;;;8.40;76.00;;;;;;5072194;28;20610;-71
2021/03/13 01:17:49;;;;;;;8.38;2.17;;;8.50;76.00;;;;;;5072049;28;20400;-72
2021/03/13 01:20:16;;;;;;;7.18;1.80;;;8.50;76.10;;;;;;5073416;28;20032;-72
2021/03/13 01:22:43;;;;;;;5.32;1.50;;;8.50;76.10;;;;;;5072042;28;20032;-72
2021/03/13 01:25:10;;;;;;;6.13;1.50;;;8.50;76.20;;;;;;5073418;28;20029;-71
2021/03/13 01:27:36;;;;;;;5.85;1.88;;;8.50;77.00;;;;;;5071941;28;20055;-72
2021/03/13 01:30:05;;;;;;;5.65;1.80;;;8.50;76.60;;;;;;5071934;28;20025;-72
2021/03/13 01:32:30;;;;;;;8.35;1.80;;;8.50;76.70;;;;;;5071890;28;20021;-71
2021/03/13 01:34:56;;;;;;;7.63;1.73;;;8.50;77.00;;;;;;5071861;28;20106;-71
2021/03/13 01:37:22;;;;;;;7.53;1.90;;;8.50;77.30;;;;;;5073291;28;20468;-71
2021/03/13 01:39:48;;;;;;;6.55;1.75;;;8.40;77.40;;;;;;5071718;28;20440;-71
2021/03/13 01:42:14;;;;;;;6.10;1.50;;;8.40;77.60;;;;;;5073100;28;20024;-71
2021/03/13 01:44:39;;;;;;;5.28;1.45;;;8.40;77.90;;;;;;5071686;28;20027;-71
2021/03/13 01:47:06;;;;;;;7.18;1.70;;;8.40;78.10;;;;;;5072933;28;20102;-71
2021/03/13 01:49:33;;;;;;;3.35;1.65;;;8.40;79.00;;;;;;5073487;28;20052;-71
2021/03/13 01:51:59;;;;;;;8.20;1.90;;;8.30;78.50;;;;;;5072489;28;20150;-71
2021/03/13 01:54:25;;;;;;;4.88;1.70;;;8.30;78.70;;;;;;5073518;28;20016;-72
2021/03/13 01:56:52;;;;;;;7.22;1.80;;;8.30;78.90;;;;;;5073408;28;20029;-71
2021/03/13 01:59:20;;;;;;;5.57;1.58;;;8.30;79.00;;;;;;5071941;28;20542;-71
2021/03/13 02:01:47;;;;;;;4.75;2.30;;;8.30;79.30;;;;;;5071763;28;20166;-71
2021/03/13 02:04:14;;;;;;;3.90;1.48;;;8.30;79.40;;;;;;5071791;28;20021;-72
2021/03/13 02:06:43;;;;;;;7.13;2.22;;;8.30;79.60;;;;;;5071999;28;20032;-71
2021/03/13 02:09:22;;;;;;;5.40;1.58;;;8.30;79.90;;;;;;5071758;28;20044;-71
2021/03/13 02:12:06;;;;;;;4.95;2.10;;;8.20;80.00;;;;;;5072133;28;20104;-71
2021/03/13 02:14:52;;;;;;;4.18;1.60;;;8.20;80.30;;;;;;5071134;28;20051;-72
2021/03/13 02:17:32;;;;;;;3.78;1.73;;;8.20;80.50;;;;;;5071334;28;20028;-71
2021/03/13 02:20:30;;;;;;;8.20;2.13;;;8.10;80.50;;;;;;5072539;28;20081;-72
2021/03/13 02:22:56;;;;;;;5.45;1.70;;;8.10;80.70;;;;;;5064157;28;20089;-71
2021/03/13 02:25:28;;;;;;;6.05;1.70;;;8.10;80.80;;;;;;5072510;28;20032;-71
2021/03/13 02:28:07;;;;;;;8.45;1.90;;;8.00;81.00;;;;;;5072838;28;20033;-71
2021/03/13 02:30:34;;;;;;;3.38;1.52;;;8.00;81.50;;;;;;5072536;28;20025;-71
2021/03/13 02:33:29;;;;;;;4.35;1.75;;;8.00;81.90;;;;;;5072819;28;20511;-71
2021/03/13 02:35:57;;;;;;;6.07;1.50;;;8.00;82.00;;;;;;5071504;28;20130;-71
2021/03/13 02:39:02;;;;;;;6.70;2.20;;;7.90;82.20;;;;;;5072688;28;20120;-71
2021/03/13 02:41:37;;;;;;;3.53;1.50;;;8.00;82.40;;;;;;5070519;28;20090;-71
2021/03/13 02:44:05;;;;;;;2.88;1.60;;;7.90;82.30;;;;;;5069128;28;20396;-71
2021/03/13 02:46:42;;;;;;;4.82;1.70;;;7.90;82.70;;;;;;5071168;28;20075;-71
2021/03/13 02:49:10;;;;;;;2.58;1.80;;;7.90;82.70;;;;;;5071641;28;20024;-71
2021/03/13 02:51:37;;;;;;;4.68;1.60;;;7.90;82.80;;;;;;5072601;28;20028;-71
2021/03/13 02:54:03;;;;;;;2.72;1.75;;;7.90;83.00;;;;;;5071206;28;20032;-71
2021/03/13 02:56:31;;;;;;;3.58;1.65;;;7.90;83.10;;;;;;5072482;28;20029;-71
2021/03/13 02:58:57;;;;;;;3.72;1.70;;;7.90;83.60;;;;;;5071026;28;20037;-71
2021/03/13 03:01:27;;;;;;;2.83;1.88;;;7.80;83.50;;;;;;5072311;28;20024;-71
2021/03/13 03:03:54;;;;;;;5.28;1.90;;;7.80;83.50;;;;;;5072325;28;20063;-71
2021/03/13 03:06:21;;;;;;;4.43;1.88;;;7.80;83.50;;;;;;5070909;28;20032;-71
2021/03/13 03:08:48;;;;;;;5.10;1.52;;;7.80;83.60;;;;;;5072222;28;20032;-70
2021/03/13 03:11:22;;;;;;;4.40;1.90;;;7.80;83.60;;;;;;5072276;28;20104;-71
2021/03/13 03:13:50;;;;;;;2.95;1.70;;;7.80;83.70;;;;;;5070530;28;20036;-71
2021/03/13 03:16:17;;;;;;;4.60;1.90;;;7.90;83.80;;;;;;5071994;28;20048;-70
2021/03/13 03:18:44;;;;;;;5.43;1.77;;;7.80;83.80;;;;;;5070609;28;20041;-71
2021/03/13 03:21:11;;;;;;;3.85;2.08;;;7.80;84.00;;;;;;5070655;28;20032;-71
2021/03/13 03:23:38;;;;;;;4.95;2.15;;;7.80;84.30;;;;;;5075269;28;20113;-71
2021/03/13 03:26:05;;;;;;;3.95;1.63;;;7.80;84.50;;;;;;5074324;28;20449;-71
2021/03/13 03:28:30;;;;;;;4.15;1.70;;;7.80;84.50;;;;;;5075490;28;20111;-71
2021/03/13 03:30:57;;;;;;;5.50;1.90;;;7.80;84.60;;;;;;5075626;28;20104;-71
2021/03/13 03:33:23;;;;;;;2.33;1.58;;;7.80;84.80;;;;;;5075552;28;20032;-70
2021/03/13 03:35:49;;;;;;;3.75;1.95;;;7.80;84.80;;;;;;5075445;28;20107;-71
2021/03/13 03:38:16;;;;;;;2.90;1.70;;;7.80;84.80;;;;;;5075401;28;20108;-70
2021/03/13 03:40:43;;;;;;;2.95;1.70;;;7.90;85.80;;;;;;5075365;28;20073;-71
2021/03/13 03:43:24;;;;;;;3.35;1.77;;;7.80;85.50;;;;;;5074148;28;20483;-71
2021/03/13 03:45:56;;;;;;;4.93;1.60;;;7.90;85.40;;;;;;5075210;28;20495;-71
2021/03/13 03:48:23;;;;;;;3.17;1.60;;;7.80;85.50;;;;;;5073918;28;20017;-71
2021/03/13 03:50:50;;;;;;;2.90;1.55;;;7.90;85.50;;;;;;5075533;28;20021;-71
2021/03/13 03:53:22;;;;;;;2.72;1.60;;;7.90;85.60;;;;;;5075303;28;20020;-71
2021/03/13 03:55:51;;;;;;;4.18;1.42;;;7.90;85.60;;;;;;5075464;28;20044;-71
2021/03/13 03:58:23;;;;;;;4.68;1.60;;;7.90;85.70;;;;;;5075061;28;20023;-71
2021/03/13 04:00:50;;;;;;;2.85;1.30;;;7.90;85.70;;;;;;5073929;28;20058;-70
2021/03/13 04:03:19;;;;;;;2.97;1.20;;;7.90;86.00;;;;;;5075228;28;20027;-71
2021/03/13 04:05:46;;;;;;;4.82;1.50;;;7.90;86.00;;;;;;5073607;28;20411;-71
2021/03/13 04:08:15;;;;;;;5.00;1.83;;;7.90;86.10;;;;;;5073626;28;20455;-71
2021/03/13 04:10:46;;;;;;;4.70;1.45;;;8.00;86.20;;;;;;5073422;28;20108;-71
2021/03/13 04:13:13;;;;;;;3.72;1.45;;;8.00;86.40;;;;;;5074635;28;20045;-70
2021/03/13 04:15:44;;;;;;;3.25;1.30;;;8.00;86.30;;;;;;5072969;28;20036;-70
2021/03/13 04:18:10;;;;;;;4.30;1.33;;;8.00;86.60;;;;;;5074798;28;20024;-69
2021/03/13 04:20:38;;;;;;;4.10;1.52;;;8.00;86.90;;;;;;5073360;28;20493;-70
2021/03/13 04:23:05;;;;;;;2.97;1.33;;;8.00;87.30;;;;;;5074633;28;20016;-70
2021/03/13 04:25:32;;;;;;;3.80;1.67;;;8.00;87.20;;;;;;5074508;28;20150;-70
2021/03/13 04:27:59;;;;;;;1.95;1.20;;;7.90;86.90;;;;;;5074718;28;20035;-70
2021/03/13 04:30:26;;;;;;;3.55;1.52;;;8.00;87.20;;;;;;5073289;28;20051;-70
2021/03/13 04:32:54;;;;;;;5.07;1.30;;;8.00;87.00;;;;;;5074577;28;20092;-69
2021/03/13 04:35:21;;;;;;;2.45;1.25;;;8.00;87.00;;;;;;5073729;28;20025;-69
2021/03/13 04:37:48;;;;;;;3.30;1.45;;;8.00;87.00;;;;;;5074264;28;20024;-69
2021/03/13 04:40:15;;;;;;;4.05;1.45;;;8.00;86.80;;;;;;5074551;28;20021;-71
2021/03/13 04:42:44;;;;;;;2.72;1.52;;;8.00;86.80;;;;;;5074259;28;20032;-70
2021/03/13 04:45:12;;;;;;;3.35;1.40;;;8.00;86.80;;;;;;5072856;28;20016;-70
2021/03/13 04:47:44;;;;;;;3.90;1.30;;;8.00;87.00;;;;;;5072690;28;20105;-70
2021/03/13 04:50:12;;;;;;;12.43;1.60;;;8.00;87.00;;;;;;5074081;28;20021;-70
2021/03/13 04:52:37;;;;;;;3.42;1.50;;;8.00;87.50;;;;;;5074075;28;20104;-70
2021/03/13 04:55:05;;;;;;;3.90;1.60;;;8.00;87.20;;;;;;5073983;28;20056;-70
2021/03/13 04:57:31;;;;;;;3.45;1.42;;;8.00;87.10;;;;;;5072805;28;20033;-70
2021/03/13 04:59:56;;;;;;;4.70;1.48;;;8.00;87.20;;;;;;5072277;28;20031;-70
2021/03/13 05:02:22;;;;;;;3.75;1.40;;;8.10;87.20;;;;;;5072705;28;20073;-71
2021/03/13 05:04:48;;;;;;;3.67;1.20;;;8.10;87.00;;;;;;5072794;28;20066;-71
2021/03/13 05:07:13;;;;;;;3.10;1.25;;;8.10;87.20;;;;;;5074324;28;20028;-71
2021/03/13 05:09:39;;;;;;;1.98;1.20;;;8.10;87.20;;;;;;5072752;28;20016;-71
2021/03/13 05:12:06;;;;;;;2.88;1.40;;;8.10;87.10;;;;;;5073958;28;20050;-69
2021/03/13 05:14:31;;;;;;;3.50;1.50;;;8.20;87.00;;;;;;5073664;28;20444;-71
2021/03/13 05:16:57;;;;;;;5.13;1.65;;;8.20;86.70;;;;;;5073621;28;20028;-71
2021/03/13 05:19:22;;;;;;;4.35;1.70;;;8.20;86.60;;;;;;5073658;28;20029;-71
2021/03/13 05:21:48;;;;;;;3.20;1.40;;;8.20;86.60;;;;;;5072099;28;20024;-71
2021/03/13 05:24:14;;;;;;;3.08;1.20;;;8.20;86.50;;;;;;5073870;28;20025;-71
2021/03/13 05:26:40;;;;;;;2.30;1.38;;;8.30;86.60;;;;;;5073357;28;20539;-71
2021/03/13 05:29:05;;;;;;;5.82;1.40;;;8.30;86.50;;;;;;5069461;28;20021;-71
2021/03/13 05:31:31;;;;;;;3.05;1.30;;;8.30;86.50;;;;;;5072124;28;20124;-71
2021/03/13 05:33:56;;;;;;;4.75;1.58;;;8.30;86.50;;;;;;5072252;28;20044;-72
2021/03/13 05:36:22;;;;;;;2.97;1.23;;;8.30;86.60;;;;;;5073364;28;20031;-69
2021/03/13 05:38:48;;;;;;;4.97;1.88;;;8.20;86.60;;;;;;5071974;28;20028;-69
2021/03/13 05:41:16;;;;;;;2.45;1.38;;;8.20;86.60;;;;;;5073650;28;20028;-71
2021/03/13 05:43:42;;;;;;;3.60;1.65;;;8.20;86.70;;;;;;5073400;28;20119;-69
2021/03/13 05:46:09;;;;;;;4.13;1.58;;;8.20;86.70;;;;;;5071772;28;20103;-69
2021/03/13 05:48:35;;;;;;;5.22;1.50;;;8.20;86.80;;;;;;5073584;28;20456;-70
2021/03/13 05:51:02;;;;;;;3.30;1.48;;;8.20;86.80;;;;;;5073483;28;20111;-70
2021/03/13 05:53:30;;;;;;;3.33;1.20;;;8.30;86.90;;;;;;5073173;28;20038;-70
2021/03/13 05:55:55;;;;;;;5.47;1.50;;;8.20;87.50;;;;;;5073124;28;20021;-70
2021/03/13 05:58:22;;;;;;;2.50;1.30;;;8.20;86.90;;;;;;5072959;28;20484;-70
2021/03/13 06:00:48;;;;;;;3.17;1.30;;;8.30;87.00;;;;;;5071995;28;20484;-70
2021/03/13 06:03:15;;;;;;;3.38;1.30;;;8.30;87.60;;;;;;5071829;28;20388;-70
2021/03/13 06:05:44;;;;;;;3.10;1.38;;;8.30;87.00;;;;;;5073025;28;20318;-70
2021/03/13 06:08:11;;;;;;;4.07;1.30;;;8.30;87.10;;;;;;5072991;28;20490;-70
2021/03/13 06:10:37;;;;;;;6.78;1.15;;;8.30;87.00;;;;;;5072798;28;20031;-71
2021/03/13 06:13:02;;;;;;;2.40;1.10;;;8.30;87.20;;;;;;5071473;28;20087;-70
2021/03/13 06:15:29;;;;;;;3.47;1.15;;;8.30;87.40;;;;;;5072634;28;20124;-70
2021/03/13 06:17:59;;;;;;;3.47;1.40;;;8.30;87.50;;;;;;5071438;28;20111;-70
2021/03/13 06:20:36;;;;;;;3.92;1.67;;;8.30;88.10;;;;;;5071369;28;20453;-70
2021/03/13 06:23:08;;;;;;;2.40;1.35;;;8.20;88.20;;;;;;5071342;28;20024;-70
2021/03/13 06:25:35;;;;;;;2.30;0.88;;;8.20;88.50;;;;;;5071345;28;20618;-70
2021/03/13 06:28:05;;;;;;;1.10;0.68;;;8.10;88.00;;;;;;5072905;28;20161;-70
2021/03/13 06:30:33;;;;;;;1.52;0.40;;;7.80;86.10;;;;;;5073310;28;20408;-68
2021/03/13 06:33:00;;;;;;;1.20;0.47;;;7.60;85.80;;;;;;5071540;28;20016;-70
2021/03/13 06:35:28;;;;;;;1.63;0.50;;;7.40;85.60;;;;;;5071610;28;20024;-70
2021/03/13 06:37:57;;;;;;;1.10;0.30;;;7.20;86.00;;;;;;5072459;28;20055;-70
2021/03/13 06:40:34;;;;;;;1.30;0.50;;;7.20;86.40;;;;;;5071335;28;20048;-70
2021/03/13 06:43:09;;;;;;;1.85;0.57;;;7.20;86.80;;;;;;5071456;28;20048;-71
2021/03/13 06:45:35;;;;;;;1.10;0.50;;;7.20;86.90;;;;;;5071257;28;20031;-71
2021/03/13 06:48:01;;;;;;;3.35;0.75;;;7.20;87.10;;;;;;5073110;28;20032;-71
2021/03/13 06:50:28;;;;;;;2.67;0.77;;;7.30;87.50;;;;;;5072556;28;20025;-71
2021/03/13 06:53:20;;;;;;;2.88;1.10;;;7.30;87.60;;;;;;5071229;28;20024;-71
2021/03/13 06:55:45;;;;;;;3.83;1.00;;;7.40;87.70;;;;;;5070145;28;20101;-71
2021/03/13 06:58:13;;;;;;;2.72;0.73;;;7.40;87.60;;;;;;5073931;28;20103;-71
2021/03/13 07:00:41;;;;;;;3.00;1.00;;;7.40;87.10;;;;;;5075031;28;20051;-71
2021/03/13 07:03:12;;;;;;;2.83;0.70;;;7.50;87.00;;;;;;5076508;28;20478;-71
2021/03/13 07:05:43;;;;;;;2.63;0.73;;;7.50;85.30;;;;;;5076302;28;20040;-71
2021/03/13 07:08:34;;;;;;;2.83;0.90;;;7.50;85.00;;;;;;5076755;28;20032;-70
2021/03/13 07:11:03;;;;;;;2.10;0.80;;;7.50;84.10;;;;;;5075912;28;20044;-71
2021/03/13 07:13:44;;;;;;;1.75;0.80;;;7.50;83.80;;;;;;5074828;28;20145;-71
2021/03/13 07:16:30;;;;;;;4.35;1.00;;;7.50;82.30;;;;;;5075823;28;20186;-69
2021/03/13 07:19:16;;;;;;;3.13;0.80;;;7.50;81.90;;;;;;5076088;28;20032;-70
2021/03/13 07:21:42;;;;;;;5.63;1.00;;;7.50;80.80;;;;;;5074234;28;20330;-70
2021/03/13 07:24:10;;;;;;;5.53;1.23;;;7.50;81.00;;;;;;5075831;28;20031;-70
2021/03/13 07:26:40;;;;;;;4.68;1.00;;;7.50;80.10;;;;;;5074597;28;20032;-71
2021/03/13 07:29:07;;;;;;;7.05;1.23;;;7.50;80.00;;;;;;5075040;28;20472;-71
2021/03/13 07:31:39;;;;;;;4.47;0.98;;;7.50;80.00;;;;;;5075783;28;20368;-71
2021/03/13 07:34:08;;;;;;;4.13;1.10;;;7.60;79.70;;;;;;5076311;28;20414;-71
2021/03/13 07:36:38;;;;;;;5.93;1.40;;;7.60;80.10;;;;;;5075778;28;20047;-71
2021/03/13 07:39:15;;;;;;;7.28;1.48;;;7.60;79.90;;;;;;5075678;28;20037;-71
2021/03/13 07:42:02;;;;;;;5.13;1.40;;;7.60;79.50;;;;;;5076078;28;20032;-71
2021/03/13 07:44:29;;;;;;;6.65;1.55;;;7.60;78.70;;;;;;5074110;28;20024;-72
2021/03/13 07:47:01;;;;;;;7.47;1.60;;;7.70;78.90;;;;;;5073977;28;20040;-72
2021/03/13 07:49:27;;;;;;;7.25;1.70;;;7.70;78.30;;;;;;5074157;28;20028;-72
2021/03/13 07:51:54;;;;;;;8.52;2.15;;;7.70;78.20;;;;;;5073633;28;20033;-71
2021/03/13 07:54:21;;;;;;;7.60;1.88;;;7.80;77.40;;;;;;5075724;28;20581;-72
2021/03/13 07:56:48;;;;;;;9.70;1.90;;;7.80;76.60;;;;;;5075563;28;20040;-72
2021/03/13 07:59:39;;;;;;;10.55;1.83;;;7.80;75.50;;;;;;5075337;28;20036;-71
2021/03/13 08:02:06;;;;;;;10.32;1.80;;;7.80;76.20;;;;;;5075341;28;20029;-72
2021/03/13 08:04:38;;;;;;;11.90;2.17;;;7.80;75.80;;;;;;5073867;28;20362;-72
2021/03/13 08:07:05;;;;;;;11.15;2.20;;;7.80;76.00;;;;;;5075391;28;20054;-72
2021/03/13 08:09:31;;;;;;;10.02;2.53;;;7.90;76.10;;;;;;5072800;28;20150;-72
2021/03/13 08:11:59;;;;;;;9.75;2.50;;;8.00;76.30;;;;;;5073695;28;20028;-71
2021/03/13 08:14:35;;;;;;;8.85;1.80;;;8.10;75.70;;;;;;5073333;28;20027;-71
2021/03/13 08:17:08;;;;;;;8.10;1.60;;;8.20;75.70;;;;;;5073839;28;20032;-71
2021/03/13 08:19:37;;;;;;;;;;;8.20;75.80;;;;;;5074551;28;20025;-71
2021/03/13 08:22:22;;;;;;;13.23;3.00;;;8.20;75.80;;;;;;5074308;28;19909;-71
2021/03/13 08:24:50;;;;;;;8.93;2.10;;;8.30;75.30;;;;;;5075097;28;20029;-71
2021/03/13 08:27:18;;;;;;;14.07;2.47;;;8.40;75.70;;;;;;5092761;28;20044;-71
2021/03/13 08:29:52;;;;;;;14.43;2.85;;;8.60;75.70;;;;;;5092564;28;20050;-72
2021/03/13 08:32:56;;;;;;;13.13;2.70;;;8.60;74.40;;;;;;5092508;28;20036;-71
2021/03/13 08:35:44;;;;;;;9.75;2.05;;;8.70;74.50;;;;;;5075592;28;20080;-72
2021/03/13 08:38:11;;;;;;;10.60;2.13;;;8.60;74.90;;;;;;5092377;28;20122;-72
2021/03/13 08:40:51;;;;;;;13.10;2.55;;;8.60;74.50;;;;;;5092576;28;20032;-71
2021/03/13 08:43:35;;;;;;;12.43;2.50;;;8.50;75.70;;;;;;5093002;28;20040;-71
2021/03/13 08:46:01;;;;;;;13.82;3.10;;;8.30;76.70;;;;;;5092612;28;20032;-71
2021/03/13 08:48:58;;;;;;;11.25;2.40;;;8.20;77.40;;;;;;5092505;28;20036;-72
2021/03/13 08:51:24;;;;;;;11.10;2.08;;;8.10;78.10;;;;;;5092169;28;20032;-71
2021/03/13 08:53:50;;;;;;;9.85;2.17;;;8.10;78.60;;;;;;5075377;28;20077;-72
2021/03/13 08:56:34;;;;;;;10.75;2.28;;;8.10;78.60;;;;;;5092120;28;20070;-71
2021/03/13 08:59:15;;;;;;;13.23;2.47;;;8.10;78.20;;;;;;5077493;28;20044;-71
2021/03/13 09:01:43;;;;;;;12.02;2.47;;;8.10;78.10;;;;;;5074124;28;20029;-71
2021/03/13 09:04:09;;;;;;;10.13;2.42;;;8.20;78.00;;;;;;5072736;28;20428;-71
2021/03/13 09:06:39;;;;;;;9.23;2.47;;;8.20;77.90;;;;;;5073837;28;20453;-72
2021/03/13 09:09:13;;;;;;;12.48;2.65;;;8.20;77.70;;;;;;5072810;28;20025;-71
2021/03/13 09:11:41;;;;;;;11.05;2.25;;;8.20;77.70;;;;;;5072469;28;20157;-71
2021/03/13 09:14:07;;;;;;;12.77;2.78;;;8.20;77.70;;;;;;5073822;28;20025;-71
2021/03/13 09:16:37;;;;;;;11.73;3.03;;;8.30;77.30;;;;;;5073645;28;20044;-71
2021/03/13 09:19:05;;;;;;;22.20;2.92;;;8.30;75.70;;;;;;5072423;28;20109;-71
2021/03/13 09:21:46;;;;;;;16.83;2.63;;;8.20;76.30;;;;;;5072110;28;20025;-71
2021/03/13 09:24:21;;;;;;;10.60;2.30;;;8.20;76.30;;;;;;5072553;28;20361;-72
2021/03/13 09:26:54;;;;;;;14.43;2.70;;;8.30;76.90;;;;;;5072229;28;20396;-72
2021/03/13 09:29:33;;;;;;;14.10;3.30;;;8.40;75.80;;;;;;5073377;28;20029;-72
2021/03/13 09:32:06;;;;;;;16.05;3.38;;;8.40;74.80;;;;;;5072243;28;20039;-72
2021/03/13 09:34:38;;;;;;;15.80;3.42;;;8.40;73.80;;;;;;5072150;28;20036;-72
2021/03/13 09:37:24;;;;;;;15.02;2.60;;;8.40;74.00;;;;;;5073316;28;20037;-72
2021/03/13 09:39:52;;;;;;;14.45;2.72;;;8.50;74.80;;;;;;5071821;28;20392;-72
2021/03/13 09:42:25;;;;;;;16.50;3.00;;;8.50;74.90;;;;;;5071842;28;20138;-72
2021/03/13 09:45:00;;;;;;;17.50;3.20;;;8.50;75.20;;;;;;5073210;28;20037;-72
2021/03/13 09:47:54;;;;;;;12.73;2.55;;;8.50;75.50;;;;;;5073130;28;20047;-72
2021/03/13 09:50:27;;;;;;;;;;;8.50;75.80;;;;;;5073667;28;20020;-71
2021/03/13 09:52:52;;;;;;;15.10;3.50;;;8.50;75.50;;;;;;5073073;28;19915;-71
2021/03/13 09:55:24;;;;;;;11.65;2.65;;;8.50;75.60;;;;;;5073327;28;20021;-71
2021/03/13 09:57:58;;;;;;;20.92;3.50;;;8.60;75.40;;;;;;5073192;28;20097;-75
2021/03/13 10:00:24;;;;;;;12.32;2.53;;;8.70;74.70;;;;;;5073041;28;20032;-72
2021/03/13 10:02:52;;;;;;;11.57;2.85;;;8.70;74.90;;;;;;5071494;28;20123;-72
2021/03/13 10:05:20;;;;;;;11.93;2.40;;;8.60;75.00;;;;;;5071634;28;20029;-71
2021/03/13 10:07:50;;;;;;;11.23;3.03;;;8.60;75.20;;;;;;5072811;28;20384;-72
2021/03/13 10:10:20;;;;;;;10.10;2.47;;;8.50;75.20;;;;;;5071577;28;20024;-71
2021/03/13 10:12:51;;;;;;;10.80;2.25;;;8.50;75.30;;;;;;5071502;28;20530;-72
2021/03/13 10:15:21;;;;;;;10.10;2.42;;;8.20;77.40;;;;;;5072634;28;20044;-70
2021/03/13 10:18:02;;;;;;;15.07;2.50;;;7.90;79.00;;;;;;5071524;28;20032;-71
2021/03/13 10:20:53;;;;;;;13.93;2.60;;;7.60;79.90;;;;;;5072768;28;20036;-71
2021/03/13 10:23:31;;;;;;;9.52;2.78;;;7.30;80.60;;;;;;5071456;28;20058;-73
2021/03/13 10:26:11;;;;;;;14.88;2.30;;;7.20;81.20;;;;;;5071346;28;20163;-70
2021/03/13 10:28:48;;;;;;;16.63;3.03;;;7.10;82.00;;;;;;5072838;28;20039;-70
2021/03/13 10:31:36;;;;;;;14.82;3.17;;;7.10;82.60;;;;;;5071196;28;20044;-70
2021/03/13 10:34:02;;;;;;;15.38;3.05;;;7.10;83.30;;;;;;5072578;28;20043;-69
2021/03/13 10:36:46;;;;;;;13.18;3.35;;;7.20;83.30;;;;;;5073004;28;20495;-71
2021/03/13 10:39:12;;;;;;;15.10;3.15;;;7.30;83.40;;;;;;5072745;28;20032;-71
2021/03/13 10:41:49;;;;;;;13.23;3.60;;;7.40;83.50;;;;;;5071429;28;20028;-71
2021/03/13 10:44:17;;;;;;;16.05;3.03;;;7.40;83.60;;;;;;5072871;28;20035;-71
2021/03/13 10:46:42;;;;;;;13.82;3.15;;;7.40;83.20;;;;;;5072563;28;20039;-71
2021/03/13 10:49:08;;;;;;;18.02;4.03;;;7.40;82.50;;;;;;5071446;28;20024;-71
2021/03/13 10:51:46;;;;;;;21.98;4.68;;;7.30;81.70;;;;;;5072477;28;20033;-71
2021/03/13 10:54:19;;;;;;;23.80;4.28;;;7.30;81.30;;;;;;5071194;28;20101;-70
2021/03/13 10:56:45;;;;;;;;;;;7.30;80.50;;;;;;5072967;28;20028;-70
2021/03/13 10:59:11;;;;;;;18.10;3.17;;;7.40;81.40;;;;;;5072688;28;19912;-71
2021/03/13 11:01:37;;;;;;;20.02;4.43;;;7.60;81.40;;;;;;5071009;28;20484;-71
2021/03/13 11:04:04;;;;;;;20.17;4.13;;;7.70;80.60;;;;;;5072916;28;20103;-71
2021/03/13 11:06:32;;;;;;;20.05;3.65;;;7.80;79.90;;;;;;5071008;28;20118;-70
2021/03/13 11:08:59;;;;;;;23.30;3.88;;;7.90;79.10;;;;;;5072472;28;20045;-71
2021/03/13 11:11:26;;;;;;;17.52;4.13;;;8.00;77.90;;;;;;5070959;28;20024;-70
2021/03/13 11:13:52;;;;;;;19.25;3.80;;;8.10;78.60;;;;;;5072324;28;20028;-71
2021/03/13 11:16:21;;;;;;;19.65;3.95;;;8.20;78.00;;;;;;5072795;28;20087;-71
2021/03/13 11:18:47;;;;;;;19.65;3.67;;;8.30;77.30;;;;;;5072247;28;20724;-72
2021/03/13 11:21:13;;;;;;;17.60;3.08;;;8.40;77.10;;;;;;5072663;28;20029;-71
2021/03/13 11:23:38;;;;;;;16.08;3.65;;;8.50;77.30;;;;;;5070862;28;20029;-70
2021/03/13 11:26:04;;;;;;;19.65;4.30;;;8.70;76.60;;;;;;5072178;28;20168;-71
2021/03/13 11:28:30;;;;;;;19.17;3.65;;;8.80;75.40;;;;;;5072089;28;20024;-71
2021/03/13 11:30:55;;;;;;;14.05;3.67;;;9.00;75.10;;;;;;5070827;28;20028;-71
2021/03/13 11:33:21;;;;;;;16.60;3.53;;;9.10;73.50;;;;;;5071952;28;20370;-71
2021/03/13 11:35:47;;;;;;;15.40;3.17;;;9.20;72.40;;;;;;5072069;28;20107;-71
2021/03/13 11:38:13;;;;;;;15.23;3.80;;;9.20;70.40;;;;;;5072100;28;20032;-71
2021/03/13 11:40:40;;;;;;;16.02;3.47;;;9.20;70.00;;;;;;5070680;28;20048;-71
2021/03/13 11:43:06;;;;;;;12.68;2.78;;;9.10;70.10;;;;;;5073386;28;20021;-70
2021/03/13 11:45:31;;;;;;;10.35;2.17;;;9.10;70.80;;;;;;5075425;28;20124;-71
2021/03/13 11:47:57;;;;;;;11.70;2.30;;;9.00;72.50;;;;;;5075372;28;20036;-71
2021/03/13 11:50:28;;;;;;;18.17;3.78;;;9.00;72.30;;;;;;5075552;28;20024;-71
2021/03/13 11:52:56;;;;;;;13.88;3.00;;;9.10;71.40;;;;;;5075373;28;20025;-71
2021/03/13 11:55:23;;;;;;;11.55;2.60;;;9.30;71.00;;;;;;5074062;28;20522;-71
2021/03/13 11:57:49;;;;;;;13.65;3.17;;;9.40;71.10;;;;;;5075488;28;20044;-71
2021/03/13 12:00:15;;;;;;;11.88;2.40;;;9.50;71.60;;;;;;5075124;28;20025;-71
2021/03/13 12:02:41;;;;;;;13.93;2.85;;;9.60;71.40;;;;;;5073579;28;20024;-71
2021/03/13 12:05:08;;;;;;;15.25;3.20;;;9.60;71.50;;;;;;5074897;28;20029;-71
2021/03/13 12:07:35;;;;;;;13.75;3.33;;;9.70;71.50;;;;;;5073561;28;20032;-71
2021/03/13 12:10:01;;;;;;;14.20;2.53;;;9.80;70.80;;;;;;5075100;28;20036;-71
2021/03/13 12:12:27;;;;;;;15.27;3.00;;;9.80;71.10;;;;;;5074857;28;20016;-71
2021/03/13 12:14:53;;;;;;;15.95;2.72;;;9.90;69.80;;;;;;5074474;28;20040;-71
2021/03/13 12:17:18;;;;;;;18.83;3.40;;;9.90;70.00;;;;;;5073393;28;20054;-72
2021/03/13 12:19:46;;;;;;;15.18;3.38;;;9.80;69.60;;;;;;5074821;28;20036;-72
2021/03/13 12:22:12;;;;;;;15.65;3.15;;;9.70;69.80;;;;;;5074619;28;20032;-70
2021/03/13 12:24:38;;;;;;;13.63;3.42;;;9.50;71.10;;;;;;5074742;28;20040;-71
2021/03/13 12:27:04;;;;;;;7.38;1.88;;;9.30;71.80;;;;;;5073264;28;20056;-71
2021/03/13 12:29:30;;;;;;;7.72;1.73;;;9.10;73.10;;;;;;5073392;28;20024;-71
2021/03/13 12:31:56;;;;;;;5.95;1.33;;;8.70;74.80;;;;;;5075110;28;20030;-71
2021/03/13 12:34:22;;;;;;;6.85;1.45;;;8.40;75.60;;;;;;5073133;28;20039;-71
2021/03/13 12:36:47;;;;;;;10.30;1.48;;;8.20;76.60;;;;;;5074322;28;20024;-71
2021/03/13 12:39:13;;;;;;;6.68;1.80;;;8.10;76.60;;;;;;5072904;28;20024;-71
2021/03/13 12:41:39;;;;;;;10.00;2.30;;;8.10;76.70;;;;;;5074738;28;20031;-71
2021/03/13 12:44:05;;;;;;;12.20;2.00;;;8.00;75.90;;;;;;5074528;28;20111;-72
2021/03/13 12:46:31;;;;;;;12.95;2.47;;;8.10;76.70;;;;;;5074176;28;20387;-71
2021/03/13 12:48:56;;;;;;;12.02;1.92;;;8.10;77.40;;;;;;5072842;28;20035;-71
2021/03/13 12:51:22;;;;;;;9.55;1.90;;;8.30;77.10;;;;;;5074536;28;20025;-71
2021/03/13 12:53:48;;;;;;;11.80;2.10;;;8.40;76.60;;;;;;5072833;28;20028;-71
2021/03/13 12:56:14;;;;;;;13.77;2.15;;;8.50;76.50;;;;;;5073789;28;20031;-71
2021/03/13 12:58:41;;;;;;;9.82;2.00;;;8.60;76.60;;;;;;5072853;28;20036;-71
2021/03/13 13:01:08;;;;;;;9.60;2.05;;;8.60;76.60;;;;;;5074569;28;20041;-71
2021/03/13 13:03:34;;;;;;;13.10;2.40;;;8.60;76.10;;;;;;5074008;28;20020;-70
2021/03/13 13:05:59;;;;;;;9.20;2.28;;;8.60;75.40;;;;;;5073953;28;20041;-71
2021/03/13 13:08:25;;;;;;;4.90;1.58;;;8.60;73.50;;;;;;5073871;28;20099;-70